Time;durP1;ratioP1;P1;durP2;ratioP2;P2;SDS_P1;SDS_P2;PMS_P1;PMS_P2;Temp;Humidity;BMP_temperature;BMP_pressure;BME280_temperature;BME280_humidity;BME280_pressure;Samples;Min_cycle;Max_cycle;Signal;HPM_P1;HPM_P2
2022/07/21 00:01:54;;;;;;;10.15;3.50;;;563.20;2201.60;;;;;;4957730;29;20082;-79
2022/07/21 00:04:20;;;;;;;4.88;3.80;;;563.20;2227.20;;;;;;4957701;29;20034;-80
2022/07/21 00:06:46;;;;;;;4.65;3.08;;;563.20;2227.20;;;;;;4957410;29;20028;-80
2022/07/21 00:09:13;;;;;;;8.50;3.00;;;563.20;2201.60;;;;;;4957857;29;20528;-79
2022/07/21 00:11:40;;;;;;;7.35;3.20;;;538.50;2201.60;;;;;;4957683;29;20031;-78
2022/07/21 00:14:07;;;;;;;7.82;3.30;;;;;;;;;;4957379;29;20027;-79
2022/07/21 00:16:33;;;;;;;5.32;3.03;;;;;;;;;;4957633;29;20473;-79
2022/07/21 00:19:00;;;;;;;7.50;3.20;;;;;;;;;;4957653;29;20027;-80
2022/07/21 00:21:26;;;;;;;5.97;3.30;;;;;;;;;;4957424;29;20497;-80
2022/07/21 00:23:52;;;;;;;8.52;3.17;;;538.50;2176.00;;;;;;4957377;29;20386;-81
2022/07/21 00:26:18;;;;;;;9.52;3.65;;;538.50;2176.00;;;;;;4957292;29;20031;-78
2022/07/21 00:28:44;;;;;;;7.55;3.10;;;538.40;2201.60;;;;;;4957010;29;20477;-81
2022/07/21 00:31:10;;;;;;;5.78;3.17;;;538.50;2201.60;;;;;;4957409;29;20526;-79
2022/07/21 00:33:35;;;;;;;5.93;2.92;;;538.50;2201.60;;;;;;4957397;29;20027;-79
2022/07/21 00:36:01;;;;;;;6.45;3.53;;;538.30;2201.60;;;;;;4957083;29;20381;-79
2022/07/21 00:38:27;;;;;;;5.78;3.08;;;538.30;2201.60;;;;;;4959843;28;20445;-80
2022/07/21 00:40:54;;;;;;;5.50;3.13;;;538.10;2227.20;;;;;;4960511;28;20480;-80
2022/07/21 00:43:20;;;;;;;6.07;3.13;;;538.00;2227.20;;;;;;4977438;28;20027;-79
2022/07/21 00:45:46;;;;;;;5.90;3.17;;;538.00;2227.20;;;;;;4960309;28;20027;-79
2022/07/21 00:48:12;;;;;;;6.18;3.33;;;537.90;2252.80;;;;;;4960145;28;20034;-80
2022/07/21 00:50:38;;;;;;;8.68;3.40;;;537.80;2252.80;;;;;;4960024;28;20031;-79
2022/07/21 00:53:04;;;;;;;5.32;3.22;;;537.80;2252.80;;;;;;4960470;28;20102;-80
2022/07/21 00:55:30;;;;;;;5.00;3.13;;;537.60;2278.40;;;;;;4959902;28;20472;-81
2022/07/21 00:57:56;;;;;;;4.95;3.20;;;537.70;2278.40;;;;;;4960139;28;20066;-79
2022/07/21 01:00:27;;;;;;;5.38;3.10;;;512.90;2278.40;;;;;;4960084;28;20031;-80
2022/07/21 01:02:54;;;;;;;5.28;3.67;;;;;;;;;;4959933;28;20106;-80
2022/07/21 01:05:20;;;;;;;5.97;3.20;;;537.70;2278.40;;;;;;4959891;28;20445;-80
2022/07/21 01:07:49;;;;;;;5.95;3.28;;;512.90;2278.40;;;;;;4958645;28;20400;-80
2022/07/21 01:10:15;;;;;;;5.03;3.00;;;;;;;;;;4959773;28;20046;-79
2022/07/21 01:12:42;;;;;;;4.80;2.97;;;;;;;;;;4959799;28;20019;-80
2022/07/21 01:15:09;;;;;;;6.63;3.75;;;;;;;;;;4959900;28;20019;-80
2022/07/21 01:17:35;;;;;;;5.40;2.72;;;537.70;2252.80;;;;;;4959702;28;20465;-79
2022/07/21 01:20:07;;;;;;;7.95;3.35;;;512.80;2252.80;;;;;;4959647;28;20035;-80
2022/07/21 01:22:35;;;;;;;5.85;2.90;;;512.70;2252.80;;;;;;4959649;28;20035;-81
2022/07/21 01:25:02;;;;;;;6.05;3.25;;;512.80;2252.80;;;;;;4959340;28;20033;-79
2022/07/21 01:27:29;;;;;;;6.10;3.13;;;512.70;2278.40;;;;;;4959494;28;20031;-79
2022/07/21 01:29:55;;;;;;;5.07;3.38;;;512.70;2278.40;;;;;;4959478;28;20187;-80
2022/07/21 01:32:22;;;;;;;6.25;3.22;;;512.70;2278.40;;;;;;4959061;28;20054;-81
2022/07/21 01:34:48;;;;;;;8.10;3.25;;;512.70;2278.40;;;;;;4959516;28;20062;-80
2022/07/21 01:37:15;;;;;;;5.40;3.47;;;512.40;2304.00;;;;;;4959125;28;20157;-81
2022/07/21 01:42:25;;;;;;;6.03;3.13;;;512.30;2304.00;;;;;;4976725;28;20050;-79
2022/07/21 01:44:51;;;;;;;5.40;3.38;;;512.30;2304.00;;;;;;4959053;28;20039;-79
2022/07/21 01:47:17;;;;;;;6.93;3.08;;;512.20;2304.00;;;;;;4976430;28;20110;-79
2022/07/21 01:49:44;;;;;;;5.88;3.22;;;512.10;2329.60;;;;;;4959112;28;20058;-79
2022/07/21 01:52:10;;;;;;;5.85;3.17;;;512.20;2329.60;;;;;;4958808;28;20038;-81
2022/07/21 01:54:37;;;;;;;5.32;3.10;;;512.40;2304.00;;;;;;4958971;28;20031;-79
2022/07/21 01:57:03;;;;;;;7.05;3.17;;;512.40;2304.00;;;;;;4959015;28;20031;-80
2022/07/21 01:59:29;;;;;;;6.70;3.25;;;512.30;2304.00;;;;;;4958679;28;20031;-80
2022/07/21 02:01:55;;;;;;;6.47;3.30;;;512.20;2329.60;;;;;;4958946;28;20027;-82
2022/07/21 02:04:20;;;;;;;6.40;3.53;;;512.30;2329.60;;;;;;4958928;28;20133;-81
2022/07/21 02:06:46;;;;;;;6.18;3.33;;;512.20;2329.60;;;;;;4958385;28;20034;-80
2022/07/21 02:09:12;;;;;;;5.25;3.15;;;487.30;2355.20;;;;;;4958792;28;20468;-82
2022/07/21 02:11:38;;;;;;;10.13;3.65;;;487.30;2355.20;;;;;;4958699;28;20461;-79
2022/07/21 02:14:04;;;;;;;6.05;3.17;;;512.10;2329.60;;;;;;4958279;28;20392;-80
2022/07/21 02:16:30;;;;;;;5.72;3.50;;;512.10;2329.60;;;;;;4958672;28;20033;-79
2022/07/21 02:18:56;;;;;;;5.20;3.17;;;512.20;2329.60;;;;;;4958409;28;20027;-80
2022/07/21 02:21:22;;;;;;;8.77;3.58;;;512.20;2329.60;;;;;;4958373;28;20031;-81
2022/07/21 02:23:48;;;;;;;7.43;4.20;;;487.20;2380.80;;;;;;4958478;28;20027;-79
2022/07/21 02:26:14;;;;;;;6.05;3.45;;;487.20;2380.80;;;;;;4958270;28;20535;-79
2022/07/21 02:28:40;;;;;;;4.90;3.40;;;487.30;2380.80;;;;;;4958151;28;20062;-80
2022/07/21 02:31:06;;;;;;;8.80;3.38;;;487.30;2380.80;;;;;;4958416;28;20078;-81
2022/07/21 02:33:32;;;;;;;6.97;3.70;;;486.90;2380.80;;;;;;4958009;28;20027;-79
2022/07/21 02:35:58;;;;;;;6.55;3.45;;;487.30;2380.80;;;;;;4975680;28;20031;-80
2022/07/21 02:38:24;;;;;;;6.53;3.13;;;487.30;2380.80;;;;;;4957918;28;20469;-80
2022/07/21 02:40:50;;;;;;;7.75;2.92;;;487.30;2380.80;;;;;;4957990;28;20054;-78
2022/07/21 02:43:16;;;;;;;5.75;3.17;;;487.30;2380.80;;;;;;4958019;28;20081;-80
2022/07/21 02:45:43;;;;;;;6.57;3.22;;;512.00;2380.80;;;;;;4958155;28;20081;-79
2022/07/21 02:48:12;;;;;;;4.80;2.97;;;487.30;2380.80;;;;;;4957200;28;20121;-78
2022/07/21 02:50:40;;;;;;;5.80;3.22;;;487.20;2380.80;;;;;;4958137;28;20437;-79
2022/07/21 02:53:12;;;;;;;6.80;3.85;;;487.20;2380.80;;;;;;4957933;28;20052;-78
2022/07/21 02:55:38;;;;;;;5.87;3.17;;;486.90;2380.80;;;;;;4957692;28;20114;-78
2022/07/21 02:58:22;;;;;;;9.93;3.75;;;487.00;2380.80;;;;;;4957832;28;20369;-81
2022/07/21 03:00:53;;;;;;;6.75;3.28;;;487.20;2380.80;;;;;;4958022;28;20058;-80
2022/07/21 03:03:20;;;;;;;8.35;3.95;;;487.10;2380.80;;;;;;4957692;28;20126;-80
2022/07/21 03:05:46;;;;;;;12.35;4.05;;;512.90;2380.80;;;;;;4957792;28;20035;-80
2022/07/21 03:08:13;;;;;;;9.85;4.55;;;487.20;2380.80;;;;;;4957743;28;20038;-81
2022/07/21 03:10:39;;;;;;;12.65;4.43;;;487.20;2380.80;;;;;;4957569;28;20022;-79
2022/07/21 03:13:06;;;;;;;9.75;4.05;;;512.00;2380.80;;;;;;4957755;28;20033;-79
2022/07/21 03:15:32;;;;;;;6.43;3.65;;;512.10;2380.80;;;;;;4957390;28;20427;-78
2022/07/21 03:17:58;;;;;;;6.15;3.67;;;512.20;2355.20;;;;;;4957648;28;20130;-78
2022/07/21 03:20:29;;;;;;;7.35;4.13;;;512.10;2355.20;;;;;;4957581;28;20059;-78
2022/07/21 03:22:56;;;;;;;6.90;3.88;;;512.00;2380.80;;;;;;4974550;28;20027;-80
2022/07/21 03:25:22;;;;;;;7.50;3.85;;;487.30;2380.80;;;;;;4957274;28;20034;-81
2022/07/21 03:27:48;;;;;;;10.32;4.35;;;512.00;2380.80;;;;;;4957426;28;20477;-79
2022/07/21 03:30:15;;;;;;;11.68;4.22;;;487.00;2380.80;;;;;;4956798;28;20034;-80
2022/07/21 03:32:42;;;;;;;7.30;3.72;;;487.00;2380.80;;;;;;4974786;28;20023;-78
2022/07/21 03:35:10;;;;;;;6.55;3.53;;;486.80;2380.80;;;;;;4957580;28;20031;-78
2022/07/21 03:37:49;;;;;;;8.90;3.88;;;486.70;2380.80;;;;;;4974385;28;20026;-80
2022/07/21 03:40:19;;;;;;;8.85;4.20;;;487.00;2380.80;;;;;;4957283;28;20050;-79
2022/07/21 03:42:45;;;;;;;8.82;3.47;;;487.00;2380.80;;;;;;4957477;28;20030;-80
2022/07/21 03:45:11;;;;;;;7.68;4.20;;;487.00;2380.80;;;;;;4957186;28;20468;-80
2022/07/21 03:47:37;;;;;;;9.82;3.85;;;487.10;2380.80;;;;;;4957191;28;20034;-78
2022/07/21 03:50:05;;;;;;;4.93;3.20;;;487.10;2380.80;;;;;;4957386;28;20089;-79
2022/07/21 03:52:31;;;;;;;6.10;3.45;;;487.10;2380.80;;;;;;4956979;28;20026;-79
2022/07/21 03:55:08;;;;;;;7.15;3.67;;;487.20;2380.80;;;;;;4957357;28;20027;-79
2022/07/21 03:57:39;;;;;;;5.95;3.25;;;487.30;2380.80;;;;;;4957322;28;20133;-79
2022/07/21 04:00:09;;;;;;;5.63;3.30;;;512.10;2380.80;;;;;;4976631;28;20010;-79
2022/07/21 04:02:35;;;;;;;5.03;3.40;;;512.00;2380.80;;;;;;4982038;28;20131;-79
2022/07/21 04:05:02;;;;;;;10.93;3.67;;;512.00;2380.80;;;;;;4981622;28;20015;-79
2022/07/21 04:07:28;;;;;;;12.45;4.75;;;487.20;2380.80;;;;;;4959116;28;20035;-78
2022/07/21 04:09:54;;;;;;;7.97;4.40;;;487.00;2380.80;;;;;;4957312;28;20066;-80
2022/07/21 04:12:19;;;;;;;7.40;3.67;;;486.80;2380.80;;;;;;4957251;28;20380;-79
2022/07/21 04:14:45;;;;;;;8.88;4.50;;;486.70;2380.80;;;;;;4974510;28;20030;-78
2022/07/21 04:17:11;;;;;;;13.82;5.65;;;486.50;2380.80;;;;;;4957296;28;20361;-78
2022/07/21 04:19:37;;;;;;;8.20;4.53;;;486.80;2380.80;;;;;;4974187;28;20031;-80
2022/07/21 04:22:02;;;;;;;7.75;3.80;;;487.00;2380.80;;;;;;4957200;28;20034;-82
2022/07/21 04:24:28;;;;;;;5.75;3.47;;;487.10;2380.80;;;;;;4957195;28;20118;-81
2022/07/21 04:26:54;;;;;;;10.07;3.85;;;487.20;2380.80;;;;;;4956725;28;20361;-80
2022/07/21 04:29:20;;;;;;;9.57;3.53;;;487.30;2380.80;;;;;;4957143;28;20031;-80
2022/07/21 04:31:45;;;;;;;7.07;3.40;;;487.30;2380.80;;;;;;4956960;28;20472;-81
2022/07/21 04:34:11;;;;;;;7.55;3.53;;;487.30;2380.80;;;;;;4956693;28;20171;-81
2022/07/21 04:36:37;;;;;;;5.72;3.60;;;512.00;2380.80;;;;;;4974517;28;20070;-81
2022/07/21 04:39:03;;;;;;;6.55;3.88;;;512.10;2380.80;;;;;;4956775;28;20047;-80
2022/07/21 04:41:29;;;;;;;7.22;4.25;;;487.30;2380.80;;;;;;4956761;28;20027;-79
2022/07/21 04:43:54;;;;;;;9.15;4.13;;;512.00;2380.80;;;;;;4959303;28;20106;-80
2022/07/21 04:46:20;;;;;;;8.55;3.97;;;512.00;2380.80;;;;;;4960078;28;20026;-78
2022/07/21 04:48:46;;;;;;;22.13;4.30;;;487.30;2380.80;;;;;;4959932;28;20035;-80
2022/07/21 04:51:12;;;;;;;9.55;4.18;;;487.20;2380.80;;;;;;4977380;28;20023;-79
2022/07/21 04:53:37;;;;;;;8.85;4.38;;;487.30;2380.80;;;;;;4959846;28;20066;-80
2022/07/21 04:56:03;;;;;;;5.35;3.78;;;512.10;2380.80;;;;;;4977403;28;20062;-81
2022/07/21 04:58:29;;;;;;;10.05;4.43;;;512.20;2380.80;;;;;;4960033;28;20121;-81
2022/07/21 05:00:55;;;;;;;10.02;4.57;;;512.10;2380.80;;;;;;4959833;28;20114;-82
2022/07/21 05:03:21;;;;;;;7.57;4.40;;;512.20;2380.80;;;;;;4959914;28;20491;-80
2022/07/21 05:05:46;;;;;;;7.03;3.72;;;512.10;2380.80;;;;;;4959927;28;20038;-79
2022/07/21 05:08:12;;;;;;;9.23;4.15;;;512.20;2380.80;;;;;;4958780;28;20081;-80
2022/07/21 05:10:38;;;;;;;8.75;4.72;;;512.20;2380.80;;;;;;4959715;28;20384;-79
2022/07/21 05:13:04;;;;;;;9.65;4.30;;;512.30;2380.80;;;;;;4959750;28;20034;-79
2022/07/21 05:15:29;;;;;;;8.75;4.63;;;512.90;2380.80;;;;;;4959126;28;20388;-78
2022/07/21 05:17:55;;;;;;;8.23;4.10;;;512.30;2380.80;;;;;;4959717;28;20042;-79
2022/07/21 05:20:21;;;;;;;10.32;4.55;;;512.40;2380.80;;;;;;4959806;28;20027;-80
2022/07/21 05:22:47;;;;;;;7.40;4.47;;;512.50;2380.80;;;;;;4959201;28;20023;-79
2022/07/21 05:25:13;;;;;;;8.43;4.05;;;512.60;2380.80;;;;;;4959759;28;20031;-80
2022/07/21 05:27:39;;;;;;;8.68;3.88;;;512.60;2380.80;;;;;;4959398;28;20035;-80
2022/07/21 05:30:05;;;;;;;7.78;4.00;;;512.80;2380.80;;;;;;4959307;28;20030;-81
2022/07/21 05:32:31;;;;;;;8.70;3.80;;;512.50;2380.80;;;;;;4959381;28;20117;-80
2022/07/21 05:34:56;;;;;;;8.38;4.68;;;512.70;2380.80;;;;;;4959403;28;20058;-80
2022/07/21 05:37:22;;;;;;;8.00;4.35;;;512.80;2380.80;;;;;;4959039;28;20031;-81
2022/07/21 05:39:48;;;;;;;11.52;4.53;;;512.90;2380.80;;;;;;4958966;28;20046;-77
2022/07/21 05:42:14;;;;;;;6.30;4.10;;;512.80;2380.80;;;;;;4959009;28;20125;-79
2022/07/21 05:44:40;;;;;;;6.95;4.00;;;537.60;2406.40;;;;;;4959292;28;20428;-81
2022/07/21 05:47:06;;;;;;;7.75;3.60;;;512.90;2380.80;;;;;;4959127;28;20030;-79
2022/07/21 05:49:31;;;;;;;6.88;4.40;;;537.60;2406.40;;;;;;4958572;28;20368;-79
2022/07/21 05:51:57;;;;;;;6.22;3.83;;;537.70;2406.40;;;;;;4975788;28;20054;-80
2022/07/21 05:54:23;;;;;;;9.55;4.35;;;537.80;2406.40;;;;;;4958727;28;20038;-80
2022/07/21 05:56:49;;;;;;;8.82;4.95;;;538.10;2406.40;;;;;;4958677;28;20035;-78
2022/07/21 05:59:14;;;;;;;8.18;4.60;;;538.10;2406.40;;;;;;4958912;28;20133;-82
2022/07/21 06:01:40;;;;;;;14.15;5.35;;;538.20;2406.40;;;;;;4959111;28;20113;-79
2022/07/21 06:04:06;;;;;;;9.20;4.47;;;538.20;2406.40;;;;;;4958961;28;20122;-79
2022/07/21 06:06:32;;;;;;;10.27;4.28;;;538.40;2406.40;;;;;;4959034;28;20026;-80
2022/07/21 06:08:59;;;;;;;7.95;4.10;;;538.50;2406.40;;;;;;4959065;28;20035;-79
2022/07/21 06:11:24;;;;;;;8.90;4.10;;;563.40;2380.80;;;;;;4975537;28;20105;-80
2022/07/21 06:13:50;;;;;;;8.63;4.50;;;563.50;2380.80;;;;;;4958806;28;20118;-80
2022/07/21 06:16:16;;;;;;;7.22;3.53;;;563.60;2329.60;;;;;;4958639;28;20085;-79
2022/07/21 06:18:42;;;;;;;7.25;3.90;;;563.80;2329.60;;;;;;4958257;28;20031;-79
2022/07/21 06:21:08;;;;;;;11.38;3.60;;;563.90;2304.00;;;;;;4958223;28;20027;-79
2022/07/21 06:23:33;;;;;;;6.03;3.83;;;563.90;2278.40;;;;;;4958538;28;20038;-78
2022/07/21 06:25:59;;;;;;;8.75;3.92;;;563.90;2278.40;;;;;;4958173;28;20069;-82
2022/07/21 06:28:25;;;;;;;8.77;3.88;;;564.00;2252.80;;;;;;4958299;28;20047;-80
2022/07/21 06:30:51;;;;;;;8.60;3.63;;;564.10;2227.20;;;;;;4958390;28;20031;-81
2022/07/21 06:33:17;;;;;;;4.97;3.05;;;588.90;2227.20;;;;;;4957988;28;20023;-79
2022/07/21 06:35:43;;;;;;;7.28;3.55;;;589.10;2201.60;;;;;;4958355;28;20026;-79
2022/07/21 06:38:09;;;;;;;5.97;3.50;;;589.40;2201.60;;;;;;4957668;28;20027;-79
2022/07/21 06:40:35;;;;;;;8.05;3.88;;;589.60;2150.40;;;;;;4957788;28;20078;-77
2022/07/21 06:43:01;;;;;;;6.93;3.45;;;589.70;2150.40;;;;;;4958248;28;20058;-82
2022/07/21 06:45:27;;;;;;;6.85;3.42;;;589.70;2124.80;;;;;;4957867;28;20113;-80
2022/07/21 06:48:07;;;;;;;9.82;2.97;;;589.70;2124.80;;;;;;4958333;28;20042;-80
2022/07/21 06:50:33;;;;;;;7.25;3.40;;;614.40;2099.20;;;;;;4958201;28;20118;-81
2022/07/21 06:52:59;;;;;;;6.93;3.42;;;614.40;2099.20;;;;;;4957794;28;20033;-82
2022/07/21 06:55:26;;;;;;;9.13;3.70;;;589.60;2073.60;;;;;;4958164;28;20038;-82
2022/07/21 06:57:51;;;;;;;10.52;3.97;;;614.80;2073.60;;;;;;4958053;28;20031;-79
2022/07/21 07:00:18;;;;;;;11.35;3.70;;;615.00;2073.60;;;;;;4957550;28;20052;-80
2022/07/21 07:02:43;;;;;;;11.05;3.47;;;615.30;2048.00;;;;;;4958104;28;20061;-79
2022/07/21 07:05:09;;;;;;;6.78;3.88;;;640.10;2022.40;;;;;;4957125;28;20030;-78
2022/07/21 07:07:35;;;;;;;7.47;4.10;;;;;;;;;;4957327;28;20046;-80
2022/07/21 07:10:02;;;;;;;8.35;3.80;;;;;;;;;;4957811;28;20476;-80
2022/07/21 07:12:28;;;;;;;6.25;3.33;;;;;;;;;;4957579;28;20023;-80
2022/07/21 07:14:55;;;;;;;8.15;3.22;;;;;;;;;;4957533;28;20038;-80
2022/07/21 07:17:21;;;;;;;8.70;3.97;;;;;;;;;;4957812;28;20114;-81
2022/07/21 07:19:47;;;;;;;9.15;3.72;;;;;;;;;;4957881;28;20045;-81
2022/07/21 07:22:13;;;;;;;6.43;3.30;;;;;;;;;;4957624;28;20049;-80
2022/07/21 07:24:40;;;;;;;5.00;2.95;;;;;;;;;;4958058;28;20532;-80
2022/07/21 07:27:06;;;;;;;7.80;3.92;;;;;;;;;;4940374;29;20027;-81
2022/07/21 07:29:33;;;;;;;8.52;3.72;;;;;;;;;;4938532;29;20023;-82
2022/07/21 07:31:59;;;;;;;10.77;4.03;;;;;;;;;;4938464;29;20492;-81
2022/07/21 07:34:25;;;;;;;5.28;3.22;;;;;;;;;;4938287;29;20026;-82
2022/07/21 07:36:51;;;;;;;6.28;3.58;;;;;;;;;;4938206;29;20020;-81
2022/07/21 07:39:17;;;;;;;5.53;3.25;;;;;;;;;;4935033;29;20072;-80
2022/07/21 07:41:44;;;;;;;5.13;3.17;;;;;;;;;;4934953;29;20028;-80
2022/07/21 07:44:10;;;;;;;6.80;3.42;;;;;;;;;;4935378;29;20118;-79
2022/07/21 07:46:36;;;;;;;7.78;3.80;;;;;;;;;;4938708;29;20031;-82
2022/07/21 07:49:03;;;;;;;7.63;3.50;;;;;;;;;;4934929;29;20032;-83
2022/07/21 07:51:29;;;;;;;7.20;3.28;;;;;;;;;;4935191;29;20020;-81
2022/07/21 07:53:55;;;;;;;4.82;3.03;;;;;;;;;;4945450;29;20027;-82
2022/07/21 07:56:21;;;;;;;8.77;3.45;;;;;;;;;;4939646;29;20036;-81
2022/07/21 07:58:47;;;;;;;7.38;3.33;;;;;;;;;;4951546;29;20513;-79
2022/07/21 08:01:16;;;;;;;7.28;3.63;;;;;;;;;;4954045;29;20029;-80
2022/07/21 08:03:48;;;;;;;8.00;3.70;;;;;;;;;;4954096;29;20028;-81
2022/07/21 08:13:08;;;;;;;;;;;;;;;;;;;;;
2022/07/21 08:15:35;;;;;;;10.57;3.33;;;;;;;;;;4890122;28;20064;-84
2022/07/21 08:28:15;;;;;;;;;;;;;;;;;;;;;
2022/07/21 08:41:29;;;;;;;;;;;;;;;;;;;;;
2022/07/21 08:43:57;;;;;;;7.65;2.75;;;;;;;;;;4841749;29;20056;-85
2022/07/21 08:46:24;;;;;;;9.63;4.43;;;;;;;;;;4944797;29;20035;-85
2022/07/21 08:48:55;;;;;;;7.78;3.45;;;;;;;;;;4949525;29;20035;-84
2022/07/21 08:51:21;;;;;;;6.30;3.10;;;;;;;;;;4956926;29;20023;-82
2022/07/21 08:53:48;;;;;;;7.53;2.70;;;;;;;;;;4956777;29;20035;-83
2022/07/21 08:56:17;;;;;;;4.88;2.65;;;;;;;;;;4956952;29;20556;-84
2022/07/21 08:59:22;;;;;;;7.47;3.00;;;;;;;;;;4945430;29;20035;-83
2022/07/21 09:01:51;;;;;;;9.02;3.42;;;;;;;;;;4946994;29;20478;-82
2022/07/21 09:04:21;;;;;;;6.93;3.03;;;;;;;;;;4951082;29;20054;-83
2022/07/21 09:06:58;;;;;;;9.63;2.80;;;;;;;;;;4949196;29;20377;-82
2022/07/21 09:09:25;;;;;;;10.82;3.13;;;;;;;;;;4937278;29;20119;-82
2022/07/21 09:11:52;;;;;;;5.35;3.03;;;;;;;;;;4937858;29;20026;-83
2022/07/21 09:14:23;;;;;;;4.32;2.38;;;;;;;;;;4937529;29;20385;-85
2022/07/21 09:16:53;;;;;;;;;;;;;;;;;;4938519;29;20501;-84
2022/07/21 09:19:31;;;;;;;7.35;2.65;;;;;;;;;;4937540;29;19907;-80
2022/07/21 09:22:01;;;;;;;5.03;2.80;;;;;;;;;;4936452;29;20047;-81
2022/07/21 09:24:40;;;;;;;8.50;3.42;;;;;;;;;;4937338;29;20028;-82
2022/07/21 09:27:14;;;;;;;6.60;2.40;;;;;;;;;;4936542;29;20043;-80
2022/07/21 09:29:43;;;;;;;5.32;2.63;;;;;;;;;;4936142;29;20024;-83
2022/07/21 09:32:16;;;;;;;8.18;2.80;;;;;;;;;;4937483;29;20036;-82
2022/07/21 09:34:43;;;;;;;7.80;2.67;;;;;;;;;;4938495;29;20048;-83
2022/07/21 09:37:09;;;;;;;7.20;3.00;;;;;;;;;;4945190;29;20054;-81
2022/07/21 09:39:46;;;;;;;4.82;3.10;;;;;;;;;;4950704;29;20519;-80
2022/07/21 09:42:13;;;;;;;7.72;4.38;;;;;;;;;;4948622;29;20114;-81
2022/07/21 09:44:42;;;;;;;8.57;3.92;;;;;;;;;;4950562;29;20038;-82
2022/07/21 09:47:12;;;;;;;9.57;4.00;;;;;;;;;;4939305;29;20035;-80
2022/07/21 09:49:38;;;;;;;6.70;3.85;;;;;;;;;;4944358;29;20024;-78
2022/07/21 09:52:18;;;;;;;7.72;3.92;;;;;;;;;;4941790;29;20508;-80
2022/07/21 09:54:45;;;;;;;10.50;4.65;;;;;;;;;;4946750;29;20035;-80
2022/07/21 09:57:11;;;;;;;10.25;3.55;;;;;;;;;;4955197;29;20035;-81
2022/07/21 09:59:39;;;;;;;20.52;5.65;;;;;;;;;;4954673;29;20638;-79
2022/07/21 10:02:05;;;;;;;7.57;3.10;;;;;;;;;;4954757;29;20569;-79
2022/07/21 10:04:32;;;;;;;8.80;3.33;;;;;;;;;;4955583;29;20067;-80
2022/07/21 10:06:59;;;;;;;7.07;3.15;;;;;;;;;;4955504;29;20026;-80
2022/07/21 10:09:25;;;;;;;10.82;3.35;;;;;;;;;;4954967;29;20110;-82
2022/07/21 10:11:52;;;;;;;5.88;3.00;;;;;;;;;;4956403;29;20034;-79
2022/07/21 10:14:18;;;;;;;9.75;3.45;;;;;;;;;;4956139;28;20376;-79
2022/07/21 10:16:44;;;;;;;6.43;3.80;;;;;;;;;;4955083;29;20031;-80
2022/07/21 10:19:16;;;;;;;4.57;2.88;;;;;;;;;;4956454;29;20027;-80
2022/07/21 10:22:00;;;;;;;6.65;3.08;;;;;;;;;;4955433;29;20027;-81
2022/07/21 10:24:30;;;;;;;7.07;3.10;;;;;;;;;;4955082;29;20027;-81
2022/07/21 10:27:04;;;;;;;8.25;4.15;;;;;;;;;;4955239;29;20380;-80
2022/07/21 10:29:49;;;;;;;5.88;3.15;;;;;;;;;;4955119;29;20499;-79
2022/07/21 10:32:28;;;;;;;7.40;3.70;;;;;;;;;;4955140;29;20170;-80
2022/07/21 10:34:55;;;;;;;4.78;3.08;;;;;;;;;;4955064;29;20019;-83
2022/07/21 10:37:39;;;;;;;6.43;2.85;;;922.00;1382.40;;;;;;4954581;29;20020;-80
2022/07/21 10:40:25;;;;;;;8.65;2.90;;;921.70;1382.40;;;;;;4954845;28;20054;-81
2022/07/21 10:43:01;;;;;;;6.78;2.50;;;921.60;1382.40;;;;;;4954747;29;20492;-81
2022/07/21 10:45:38;;;;;;;5.53;3.17;;;921.70;1382.40;;;;;;4954707;29;20469;-82
2022/07/21 10:48:08;;;;;;;6.70;2.70;;;;;;;;;;4956151;28;20035;-82
2022/07/21 10:50:35;;;;;;;5.53;2.67;;;;;;;;;;4954617;29;20028;-79
2022/07/21 10:53:06;;;;;;;8.02;3.40;;;;;;;;;;4955100;29;20118;-81
2022/07/21 10:55:35;;;;;;;5.13;2.80;;;;;;;;;;4955090;29;20050;-81
2022/07/21 10:58:26;;;;;;;5.75;2.35;;;;;;;;;;4954579;29;20035;-83
2022/07/21 11:00:52;;;;;;;7.65;2.75;;;;;;;;;;4953803;29;20122;-79
2022/07/21 11:03:23;;;;;;;7.50;3.03;;;;;;;;;;4954825;29;20118;-80
2022/07/21 11:06:07;;;;;;;6.00;3.25;;;;;;;;;;4961718;29;20023;-81
2022/07/21 11:08:35;;;;;;;6.55;3.17;;;;;;;;;;4969394;29;20039;-81
2022/07/21 11:11:10;;;;;;;6.20;3.38;;;;;;;;;;4954895;29;20381;-82
2022/07/21 11:13:54;;;;;;;5.30;2.72;;;;;;;;;;4954837;29;20122;-81
2022/07/21 11:16:21;;;;;;;5.38;3.08;;;;;;;;;;4954295;29;20034;-82
2022/07/21 11:18:47;;;;;;;5.55;2.90;;;;;;;;;;4954856;29;20385;-81
2022/07/21 11:21:15;;;;;;;7.53;4.60;;;;;;;;;;4955396;29;20130;-79
2022/07/21 11:23:46;;;;;;;4.40;2.70;;;;;;;;;;4954657;29;20023;-80
2022/07/21 11:26:14;;;;;;;7.20;3.20;;;;;;;;;;4954664;29;20132;-81
2022/07/21 11:28:40;;;;;;;6.80;2.85;;;;;;;;;;4954283;29;20023;-81
2022/07/21 11:31:08;;;;;;;5.60;2.97;;;;;;;;;;4954046;29;20540;-81
2022/07/21 11:33:36;;;;;;;5.60;3.08;;;;;;;;;;4954345;29;20079;-80
2022/07/21 11:36:03;;;;;;;8.05;3.03;;;;;;;;;;4954068;29;20478;-80
2022/07/21 11:38:28;;;;;;;5.32;2.67;;;947.60;1280.00;;;;;;4954199;29;20027;-80
2022/07/21 11:41:11;;;;;;;6.78;2.97;;;947.80;1280.00;;;;;;4954275;29;20143;-80
2022/07/21 11:43:46;;;;;;;10.82;2.92;;;947.70;1254.40;;;;;;4953907;29;20425;-80
2022/07/21 11:46:13;;;;;;;8.75;2.90;;;947.90;1280.00;;;;;;4954238;29;20043;-81
2022/07/21 11:48:39;;;;;;;6.80;3.25;;;947.80;1280.00;;;;;;4954188;29;20035;-82
2022/07/21 11:51:06;;;;;;;8.70;3.35;;;948.00;1305.60;;;;;;4954067;28;20118;-81
2022/07/21 11:53:32;;;;;;;5.95;3.00;;;948.00;1280.00;;;;;;4949780;29;20028;-81
2022/07/21 11:55:58;;;;;;;10.23;3.33;;;948.10;1280.00;;;;;;4957983;29;20457;-82
2022/07/21 11:58:25;;;;;;;6.38;3.72;;;972.90;1305.60;;;;;;4957845;29;20042;-81
2022/07/21 12:01:04;;;;;;;8.38;3.75;;;972.80;1305.60;;;;;;4958208;29;20047;-82
2022/07/21 12:03:30;;;;;;;10.75;3.70;;;972.80;1305.60;;;;;;4957837;29;20027;-82
2022/07/21 12:05:56;;;;;;;9.68;5.95;;;972.90;1331.20;;;;;;4957483;29;20543;-79
2022/07/21 12:08:23;;;;;;;5.53;3.38;;;973.10;1305.60;;;;;;4948747;29;20027;-82
2022/07/21 12:10:49;;;;;;;15.52;4.90;;;973.00;1280.00;;;;;;4946824;29;20170;-81
2022/07/21 12:13:15;;;;;;;8.60;5.15;;;948.10;1280.00;;;;;;4948778;29;20106;-83
2022/07/21 12:15:41;;;;;;;9.05;6.00;;;972.90;1331.20;;;;;;4948718;29;20488;-81
2022/07/21 12:18:17;;;;;;;5.63;3.90;;;973.20;1305.60;;;;;;4947310;29;20055;-82
2022/07/21 12:20:46;;;;;;;8.52;2.95;;;973.20;1280.00;;;;;;4951762;29;20023;-82
2022/07/21 12:23:24;;;;;;;6.50;3.67;;;973.20;1280.00;;;;;;4951491;29;20027;-84
2022/07/21 12:25:51;;;;;;;6.47;2.92;;;973.10;1280.00;;;;;;4946519;29;20038;-82
2022/07/21 12:28:17;;;;;;;9.13;2.83;;;972.80;1280.00;;;;;;4946628;29;20024;-83
2022/07/21 12:30:52;;;;;;;6.38;2.63;;;972.90;1280.00;;;;;;4944966;29;20039;-80
2022/07/21 12:33:20;;;;;;;9.27;2.83;;;972.90;1254.40;;;;;;4948495;29;20027;-83
2022/07/21 12:36:07;;;;;;;4.82;2.53;;;972.90;1228.80;;;;;;4944916;29;20054;-83
2022/07/21 12:38:47;;;;;;;7.18;2.50;;;973.10;1228.80;;;;;;4953502;29;20058;-82
2022/07/21 12:41:16;;;;;;;5.10;3.00;;;973.20;1203.20;;;;;;4956079;29;20028;-80
2022/07/21 12:43:43;;;;;;;6.75;2.28;;;973.20;1203.20;;;;;;4958652;28;20062;-80
2022/07/21 12:46:18;;;;;;;5.90;2.65;;;973.40;1228.80;;;;;;4956911;29;20110;-81
2022/07/21 12:48:44;;;;;;;8.10;3.50;;;973.50;1228.80;;;;;;4956679;29;20031;-80
2022/07/21 12:51:14;;;;;;;10.27;3.80;;;973.60;1228.80;;;;;;4957145;29;20043;-79
2022/07/21 12:53:41;;;;;;;9.38;2.90;;;973.70;1228.80;;;;;;4957043;29;20027;-83
2022/07/21 12:56:08;;;;;;;6.50;2.70;;;973.60;1228.80;;;;;;4958253;28;20027;-79
2022/07/21 12:58:34;;;;;;;6.97;3.20;;;973.50;1228.80;;;;;;4956788;29;20037;-80
2022/07/21 13:01:00;;;;;;;9.23;3.67;;;973.70;1228.80;;;;;;4956661;29;20035;-80
2022/07/21 13:03:29;;;;;;;5.75;3.97;;;973.70;1228.80;;;;;;4955903;28;20732;-81
2022/07/21 13:05:55;;;;;;;6.68;2.55;;;973.60;1228.80;;;;;;4958495;29;20536;-80
2022/07/21 13:08:21;;;;;;;6.60;3.03;;;973.70;1228.80;;;;;;4957356;28;20429;-82
2022/07/21 13:10:46;;;;;;;6.30;2.97;;;998.50;1228.80;;;;;;4957938;28;20114;-81
2022/07/21 13:13:12;;;;;;;6.85;3.42;;;998.60;1228.80;;;;;;4956810;29;20046;-80
2022/07/21 13:15:38;;;;;;;7.63;2.78;;;998.50;1228.80;;;;;;4956291;29;20657;-84
2022/07/21 13:18:04;;;;;;;7.07;3.13;;;998.50;1254.40;;;;;;4956286;29;20027;-83
2022/07/21 13:20:30;;;;;;;7.45;3.00;;;998.50;1228.80;;;;;;4956080;29;20023;-84
2022/07/21 13:22:56;;;;;;;8.43;3.50;;;998.80;1254.40;;;;;;4956652;29;20114;-81
2022/07/21 13:25:22;;;;;;;6.88;3.00;;;998.80;1228.80;;;;;;4956492;29;20091;-80
2022/07/21 13:27:48;;;;;;;6.35;3.10;;;998.80;1228.80;;;;;;4956202;29;20197;-82
2022/07/21 13:30:14;;;;;;;6.63;3.08;;;998.60;1228.80;;;;;;4956481;29;20028;-85
2022/07/21 13:32:40;;;;;;;5.35;3.40;;;998.80;1254.40;;;;;;4956153;29;20038;-81
2022/07/21 13:35:06;;;;;;;7.70;3.80;;;998.80;1228.80;;;;;;4956239;29;20031;-82